Time;durP1;ratioP1;P1;durP2;ratioP2;P2;SDS_P1;SDS_P2;PMS_P1;PMS_P2;Temp;Humidity;BMP_temperature;BMP_pressure;BME280_temperature;BME280_humidity;BME280_pressure;Samples;Min_cycle;Max_cycle;Signal;HPM_P1;HPM_P2
2022/05/20 00:00:48;;;;;;;;;;;21.50;53.40;;;;;;465961;255;1249;-39
2022/05/20 00:02:49;;;;;;;;;;;21.50;53.40;;;;;;468073;254;1590;-40
2022/05/20 00:04:50;;;;;;;;;;;21.50;53.50;;;;;;466218;255;1216;-39
2022/05/20 00:06:52;;;;;;;;;;;21.50;53.50;;;;;;467523;255;1283;-39
2022/05/20 00:08:54;;;;;;;;;;;21.50;53.30;;;;;;465744;255;1513;-39
2022/05/20 00:10:55;;;;;;;;;;;21.50;53.30;;;;;;467618;255;2142;-39
2022/05/20 00:12:56;;;;;;;;;;;21.50;53.30;;;;;;466013;255;1528;-39
2022/05/20 00:14:58;;;;;;;;;;;21.50;53.30;;;;;;467979;254;1206;-40
2022/05/20 00:17:01;;;;;;;;;;;21.50;53.40;;;;;;466014;255;1302;-39
2022/05/20 00:19:01;;;;;;;;;;;21.50;53.50;;;;;;467533;255;2138;-39
2022/05/20 00:21:02;;;;;;;;;;;21.50;53.40;;;;;;465832;255;1426;-39
2022/05/20 00:23:03;;;;;;;;;;;21.50;53.50;;;;;;467741;254;1538;-39
2022/05/20 00:27:24;;;;;;;;;;;21.60;53.40;;;;;;467610;254;2456;-39
2022/05/20 00:29:25;;;;;;;;;;;21.50;53.40;;;;;;465792;255;1203;-39
2022/05/20 00:31:27;;;;;;;;;;;21.50;53.40;;;;;;467583;254;1269;-39
2022/05/20 00:33:28;;;;;;;;;;;21.50;53.50;;;;;;466210;255;1456;-39
2022/05/20 00:35:29;;;;;;;;;;;21.50;53.40;;;;;;467777;254;1161;-39
2022/05/20 00:37:31;;;;;;;;;;;21.50;53.40;;;;;;465761;255;1304;-39
2022/05/20 00:39:32;;;;;;;;;;;21.50;53.40;;;;;;467691;254;2129;-39
2022/05/20 00:41:33;;;;;;;;;;;21.50;53.40;;;;;;465818;255;1209;-39
2022/05/20 00:43:35;;;;;;;;;;;21.50;53.40;;;;;;468074;254;1355;-39
2022/05/20 00:45:36;;;;;;;;;;;21.50;53.40;;;;;;466071;255;1206;-39
2022/05/20 00:47:38;;;;;;;;;;;21.50;53.40;;;;;;467699;255;1179;-40
2022/05/20 00:49:39;;;;;;;;;;;21.50;53.40;;;;;;465799;255;1364;-39
2022/05/20 00:51:40;;;;;;;;;;;21.50;53.50;;;;;;467622;255;1233;-39
2022/05/20 00:53:41;;;;;;;;;;;21.50;53.50;;;;;;466258;255;1262;-39
2022/05/20 00:55:43;;;;;;;;;;;21.50;53.40;;;;;;468049;254;1166;-39
2022/05/20 00:57:44;;;;;;;;;;;21.50;53.40;;;;;;466108;255;1302;-39
2022/05/20 00:59:46;;;;;;;;;;;21.50;53.40;;;;;;467906;254;2196;-40
2022/05/20 01:01:47;;;;;;;;;;;21.60;53.40;;;;;;465831;255;1215;-39
2022/05/20 01:03:49;;;;;;;;;;;21.50;53.40;;;;;;467713;254;1065;-39
2022/05/20 01:05:49;;;;;;;;;;;21.50;53.40;;;;;;465650;255;2506;-39
2022/05/20 01:07:51;;;;;;;;;;;21.50;53.30;;;;;;467592;254;1238;-39
2022/05/20 01:09:52;;;;;;;;;;;21.50;53.30;;;;;;466169;255;1071;-39
2022/05/20 01:11:53;;;;;;;;;;;21.50;53.30;;;;;;467589;255;1085;-39
2022/05/20 01:13:55;;;;;;;;;;;21.50;53.30;;;;;;465877;255;1048;-39
2022/05/20 01:15:56;;;;;;;;;;;21.50;53.50;;;;;;467788;254;1436;-39
2022/05/20 01:17:57;;;;;;;;;;;21.50;53.40;;;;;;465727;255;1212;-39
2022/05/20 01:19:59;;;;;;;;;;;21.50;53.40;;;;;;467933;254;2142;-39
2022/05/20 01:22:00;;;;;;;;;;;21.50;53.40;;;;;;465817;255;1272;-39
2022/05/20 01:24:01;;;;;;;;;;;21.50;53.40;;;;;;468009;254;1318;-39
2022/05/20 01:26:03;;;;;;;;;;;21.50;53.40;;;;;;465783;255;1445;-39
2022/05/20 01:28:04;;;;;;;;;;;21.50;53.50;;;;;;467657;255;1172;-39
2022/05/20 01:30:05;;;;;;;;;;;21.50;53.30;;;;;;466255;255;1189;-39
2022/05/20 01:32:07;;;;;;;;;;;21.50;53.30;;;;;;467709;254;1250;-39
2022/05/20 01:34:08;;;;;;;;;;;21.50;53.40;;;;;;465843;255;1296;-40
2022/05/20 01:36:09;;;;;;;;;;;21.50;53.40;;;;;;467630;254;1187;-39
2022/05/20 01:38:11;;;;;;;;;;;21.50;53.40;;;;;;465726;255;1498;-39
2022/05/20 01:40:12;;;;;;;;;;;21.50;53.30;;;;;;467696;255;2141;-39
2022/05/20 01:42:13;;;;;;;;;;;21.50;53.30;;;;;;465740;255;1211;-39
2022/05/20 01:44:15;;;;;;;;;;;21.50;53.30;;;;;;467770;254;1275;-39
2022/05/20 01:46:16;;;;;;;;;;;21.50;53.40;;;;;;465990;255;1349;-39
2022/05/20 01:48:17;;;;;;;;;;;21.50;53.40;;;;;;467831;254;1230;-39
2022/05/20 01:50:18;;;;;;;;;;;21.50;53.40;;;;;;465983;255;1531;-39
2022/05/20 01:52:20;;;;;;;;;;;21.40;53.50;;;;;;467918;254;1275;-39
2022/05/20 01:54:21;;;;;;;;;;;21.50;53.50;;;;;;465722;255;1238;-39
2022/05/20 01:56:22;;;;;;;;;;;21.40;53.50;;;;;;467769;254;1168;-40
2022/05/20 01:58:24;;;;;;;;;;;21.50;53.50;;;;;;465828;254;1233;-39
2022/05/20 02:00:26;;;;;;;;;;;21.50;53.40;;;;;;468083;253;2137;-39
2022/05/20 02:02:27;;;;;;;;;;;21.50;53.40;;;;;;465896;255;1224;-39
2022/05/20 02:04:28;;;;;;;;;;;21.50;53.40;;;;;;467675;255;1347;-39
2022/05/20 02:06:29;;;;;;;;;;;21.50;53.40;;;;;;466189;255;1150;-39
2022/05/20 02:08:31;;;;;;;;;;;21.50;53.40;;;;;;467917;254;1367;-39
2022/05/20 02:10:32;;;;;;;;;;;21.50;53.40;;;;;;465764;255;1264;-39
2022/05/20 02:12:36;;;;;;;;;;;21.50;53.40;;;;;;467632;255;1670;-39
2022/05/20 02:14:35;;;;;;;;;;;21.50;53.40;;;;;;465858;256;1631;-39
2022/05/20 02:16:36;;;;;;;;;;;21.50;53.30;;;;;;467656;254;1209;-39
2022/05/20 02:18:38;;;;;;;;;;;21.50;53.40;;;;;;466159;255;1296;-39
2022/05/20 02:20:39;;;;;;;;;;;21.60;53.30;;;;;;467884;254;2212;-39
2022/05/20 02:22:40;;;;;;;;;;;21.50;53.30;;;;;;466089;255;1215;-39
2022/05/20 02:24:41;;;;;;;;;;;21.50;53.30;;;;;;467665;255;1204;-40
2022/05/20 02:26:43;;;;;;;;;;;21.50;53.50;;;;;;465763;255;1276;-39
2022/05/20 02:28:44;;;;;;;;;;;21.50;53.50;;;;;;467717;255;1249;-39
2022/05/20 02:30:46;;;;;;;;;;;21.50;53.50;;;;;;465802;255;1374;-39
2022/05/20 02:32:47;;;;;;;;;;;21.50;53.50;;;;;;467742;254;1152;-39
2022/05/20 02:34:48;;;;;;;;;;;21.50;53.50;;;;;;465816;255;1299;-39
2022/05/20 02:36:50;;;;;;;;;;;21.50;53.40;;;;;;467685;254;1172;-39
2022/05/20 02:38:51;;;;;;;;;;;21.50;53.50;;;;;;466083;255;1375;-39
2022/05/20 02:40:52;;;;;;;;;;;21.50;53.40;;;;;;467638;255;2129;-39
2022/05/20 02:42:53;;;;;;;;;;;21.50;53.40;;;;;;465811;255;1614;-39
2022/05/20 02:44:55;;;;;;;;;;;21.50;53.50;;;;;;468071;254;1195;-40
2022/05/20 02:46:56;;;;;;;;;;;21.40;53.40;;;;;;465788;255;1228;-39
2022/05/20 02:48:57;;;;;;;;;;;21.50;53.40;;;;;;467609;255;1274;-39
2022/05/20 02:50:59;;;;;;;;;;;21.50;53.30;;;;;;465785;255;1271;-39
2022/05/20 02:53:00;;;;;;;;;;;21.50;53.40;;;;;;467664;255;1280;-39
2022/05/20 02:55:02;;;;;;;;;;;21.50;53.40;;;;;;466231;255;1251;-39
2022/05/20 02:57:03;;;;;;;;;;;21.50;53.30;;;;;;468064;254;1243;-39
2022/05/20 03:06:03;;;;;;;;;;;21.50;53.40;;;;;;467966;254;1285;-39
2022/05/20 03:08:05;;;;;;;;;;;21.50;53.40;;;;;;465818;255;1505;-39
2022/05/20 03:10:05;;;;;;;;;;;21.50;53.40;;;;;;467682;254;2026;-39
2022/05/20 03:12:07;;;;;;;;;;;21.50;53.40;;;;;;465967;255;1287;-39
2022/05/20 03:14:08;;;;;;;;;;;21.50;53.40;;;;;;467593;255;1211;-39
2022/05/20 03:16:10;;;;;;;;;;;21.50;53.40;;;;;;465827;255;1178;-39
2022/05/20 03:18:11;;;;;;;;;;;21.50;53.40;;;;;;467794;254;1216;-39
2022/05/20 03:20:13;;;;;;;;;;;21.50;53.50;;;;;;466146;255;2141;-39
2022/05/20 03:22:14;;;;;;;;;;;21.50;53.40;;;;;;467779;254;1573;-39
2022/05/20 03:24:16;;;;;;;;;;;21.50;53.40;;;;;;466040;255;1186;-39
2022/05/20 03:26:16;;;;;;;;;;;21.40;53.40;;;;;;467833;254;1216;-39
2022/05/20 03:28:18;;;;;;;;;;;21.40;53.50;;;;;;466093;255;1260;-39
2022/05/20 03:30:19;;;;;;;;;;;21.40;53.60;;;;;;467609;255;1583;-39
2022/05/20 03:32:21;;;;;;;;;;;21.50;53.50;;;;;;465898;255;1580;-39
2022/05/20 03:34:22;;;;;;;;;;;21.40;53.50;;;;;;467666;254;1228;-39
2022/05/20 03:36:23;;;;;;;;;;;21.50;53.50;;;;;;465925;255;1900;-39
2022/05/20 03:38:25;;;;;;;;;;;21.50;53.50;;;;;;467721;254;1395;-39
2022/05/20 03:40:26;;;;;;;;;;;21.40;53.50;;;;;;466011;255;2214;-39
2022/05/20 03:42:27;;;;;;;;;;;21.40;53.50;;;;;;467873;254;1164;-39
2022/05/20 03:44:29;;;;;;;;;;;21.40;53.60;;;;;;465794;255;1055;-39
2022/05/20 03:46:30;;;;;;;;;;;21.40;53.50;;;;;;467649;255;1349;-39
2022/05/20 03:48:31;;;;;;;;;;;21.40;53.50;;;;;;465919;255;1213;-39
2022/05/20 03:50:33;;;;;;;;;;;21.40;53.50;;;;;;467897;254;1234;-39
2022/05/20 03:52:34;;;;;;;;;;;21.50;53.50;;;;;;466066;255;1593;-39
2022/05/20 03:54:35;;;;;;;;;;;21.40;53.50;;;;;;467751;254;1073;-39
2022/05/20 03:56:40;;;;;;;;;;;21.50;53.50;;;;;;466002;255;1242;-39
2022/05/20 03:58:38;;;;;;;;;;;21.50;53.40;;;;;;467621;255;2223;-39
2022/05/20 04:03:00;;;;;;;;;;;21.50;53.40;;;;;;467761;255;1889;-39
2022/05/20 04:05:01;;;;;;;;;;;21.50;53.40;;;;;;465905;255;1292;-40
2022/05/20 04:07:03;;;;;;;;;;;21.50;53.40;;;;;;467715;254;1213;-39
2022/05/20 04:09:05;;;;;;;;;;;21.50;53.40;;;;;;465875;255;1184;-39
2022/05/20 04:11:06;;;;;;;;;;;21.50;53.40;;;;;;467936;254;2251;-39
2022/05/20 04:13:07;;;;;;;;;;;21.50;53.40;;;;;;465838;255;1492;-39
2022/05/20 04:15:08;;;;;;;;;;;21.50;53.50;;;;;;467806;254;1289;-40
2022/05/20 04:17:09;;;;;;;;;;;21.40;53.40;;;;;;465739;255;1255;-39
2022/05/20 04:19:11;;;;;;;;;;;21.50;53.40;;;;;;467740;254;1184;-39
2022/05/20 04:21:12;;;;;;;;;;;21.50;53.40;;;;;;465806;256;2444;-39
2022/05/20 04:23:16;;;;;;;;;;;21.50;53.40;;;;;;467556;254;1518;-39
2022/05/20 04:25:15;;;;;;;;;;;21.50;53.40;;;;;;465762;256;2421;-39
2022/05/20 04:27:16;;;;;;;;;;;21.50;53.40;;;;;;467493;255;1171;-39
2022/05/20 04:29:18;;;;;;;;;;;21.40;53.40;;;;;;465737;255;1174;-39
2022/05/20 04:31:19;;;;;;;;;;;21.50;53.40;;;;;;467672;254;1424;-39
2022/05/20 04:33:20;;;;;;;;;;;21.50;53.40;;;;;;465696;255;1206;-39
2022/05/20 04:35:22;;;;;;;;;;;21.50;53.40;;;;;;467428;255;1533;-39
2022/05/20 04:37:25;;;;;;;;;;;21.50;53.50;;;;;;465750;255;1358;-40
2022/05/20 04:39:24;;;;;;;;;;;21.50;53.30;;;;;;467457;255;2269;-39
2022/05/20 04:48:23;;;;;;;;;;;21.50;53.40;;;;;;467561;250;1283;-40
2022/05/20 04:50:25;;;;;;;;;;;21.50;53.40;;;;;;465684;255;1317;-39
2022/05/20 04:52:26;;;;;;;;;;;21.50;53.40;;;;;;467549;254;1532;-39
2022/05/20 04:56:47;;;;;;;;;;;21.50;53.40;;;;;;467489;254;1359;-39
2022/05/20 04:58:48;;;;;;;;;;;21.50;53.40;;;;;;465614;255;1307;-39
2022/05/20 05:00:49;;;;;;;;;;;21.50;53.40;;;;;;467532;255;2200;-39
2022/05/20 05:02:51;;;;;;;;;;;21.50;53.40;;;;;;465877;255;1162;-39
2022/05/20 05:04:52;;;;;;;;;;;21.50;53.40;;;;;;467369;255;1245;-39
2022/05/20 05:06:53;;;;;;;;;;;21.50;53.30;;;;;;465523;255;1234;-40
2022/05/20 05:08:55;;;;;;;;;;;21.40;53.40;;;;;;467352;255;1316;-39
2022/05/20 05:10:56;;;;;;;;;;;21.50;53.40;;;;;;465799;255;1412;-39
2022/05/20 05:12:58;;;;;;;;;;;21.50;53.40;;;;;;467459;254;1212;-39
2022/05/20 05:14:59;;;;;;;;;;;21.40;53.40;;;;;;465680;255;1155;-39
2022/05/20 05:17:00;;;;;;;;;;;21.50;53.40;;;;;;467425;254;1192;-39
2022/05/20 05:19:02;;;;;;;;;;;21.50;53.40;;;;;;465842;255;1531;-39
2022/05/20 05:21:03;;;;;;;;;;;21.50;53.30;;;;;;467426;254;2149;-39
2022/05/20 05:23:04;;;;;;;;;;;21.50;53.30;;;;;;465652;255;1278;-39
2022/05/20 05:25:06;;;;;;;;;;;21.40;53.50;;;;;;467439;255;1231;-39
2022/05/20 05:27:07;;;;;;;;;;;21.50;53.40;;;;;;465732;255;1261;-39
2022/05/20 05:29:08;;;;;;;;;;;21.50;53.40;;;;;;467456;254;1277;-39
2022/05/20 05:31:10;;;;;;;;;;;21.50;53.40;;;;;;465682;255;1222;-39
2022/05/20 05:33:11;;;;;;;;;;;21.40;53.40;;;;;;467390;254;1263;-39
2022/05/20 05:35:13;;;;;;;;;;;21.50;53.50;;;;;;465620;255;1262;-39
2022/05/20 05:37:14;;;;;;;;;;;21.50;53.40;;;;;;467278;255;1192;-39
2022/05/20 05:39:15;;;;;;;;;;;21.40;53.40;;;;;;465483;255;1438;-39
2022/05/20 05:41:17;;;;;;;;;;;21.50;53.50;;;;;;467500;254;2211;-39
2022/05/20 05:43:18;;;;;;;;;;;21.50;53.40;;;;;;465357;255;1360;-39
2022/05/20 05:45:20;;;;;;;;;;;21.50;53.30;;;;;;467438;254;1222;-39
2022/05/20 05:47:21;;;;;;;;;;;21.50;53.40;;;;;;465454;255;1273;-40
2022/05/20 05:49:22;;;;;;;;;;;21.50;53.50;;;;;;467260;255;1753;-39
2022/05/20 05:51:24;;;;;;;;;;;21.50;53.40;;;;;;465373;255;1284;-39
2022/05/20 05:53:25;;;;;;;;;;;21.50;53.30;;;;;;467322;254;1280;-40
2022/05/20 05:55:26;;;;;;;;;;;21.50;53.20;;;;;;465489;255;1140;-40
2022/05/20 05:57:28;;;;;;;;;;;21.50;53.20;;;;;;467212;254;1162;-40
2022/05/20 05:59:31;;;;;;;;;;;21.50;53.40;;;;;;465421;255;1195;-40
2022/05/20 06:01:31;;;;;;;;;;;21.50;53.40;;;;;;467224;254;2403;-40
2022/05/20 06:03:33;;;;;;;;;;;21.50;53.30;;;;;;465500;255;1278;-40
2022/05/20 06:05:34;;;;;;;;;;;21.40;53.40;;;;;;467130;255;1224;-40
2022/05/20 06:07:36;;;;;;;;;;;21.50;53.50;;;;;;465489;255;1195;-40
2022/05/20 06:09:37;;;;;;;;;;;21.50;53.50;;;;;;467210;255;1258;-40
2022/05/20 06:11:39;;;;;;;;;;;21.50;53.40;;;;;;465261;255;1230;-40
2022/05/20 06:13:40;;;;;;;;;;;21.50;53.40;;;;;;466941;253;2279;-41
2022/05/20 06:15:41;;;;;;;;;;;21.50;53.30;;;;;;465373;254;1245;-40
2022/05/20 06:17:43;;;;;;;;;;;21.50;53.30;;;;;;467206;254;1205;-40
2022/05/20 06:19:44;;;;;;;;;;;21.50;53.30;;;;;;465325;251;1310;-40
2022/05/20 06:21:45;;;;;;;;;;;21.50;53.40;;;;;;467127;255;2192;-40
2022/05/20 06:23:46;;;;;;;;;;;21.50;53.50;;;;;;465294;255;1146;-40
2022/05/20 06:25:48;;;;;;;;;;;21.50;53.50;;;;;;467037;255;1415;-40
2022/05/20 06:27:49;;;;;;;;;;;21.50;53.50;;;;;;465173;255;1315;-40
2022/05/20 06:29:50;;;;;;;;;;;21.50;53.40;;;;;;467250;254;1084;-40
2022/05/20 06:31:51;;;;;;;;;;;21.50;53.50;;;;;;465227;255;1172;-40
2022/05/20 06:33:53;;;;;;;;;;;21.50;53.50;;;;;;467116;254;1132;-40
2022/05/20 06:40:33;;;;;;;;;;;21.50;53.70;;;;;;465143;255;2024;-40
2022/05/20 06:42:34;;;;;;;;;;;21.50;53.60;;;;;;467002;254;2229;-40
2022/05/20 06:44:36;;;;;;;;;;;21.50;53.60;;;;;;465168;255;1679;-40
2022/05/20 06:46:37;;;;;;;;;;;21.50;53.70;;;;;;467003;254;1234;-40
2022/05/20 06:48:38;;;;;;;;;;;21.50;53.70;;;;;;465216;255;1313;-41
2022/05/20 06:50:40;;;;;;;;;;;21.50;53.70;;;;;;466865;255;1370;-40
2022/05/20 06:52:41;;;;;;;;;;;21.60;53.80;;;;;;464848;255;1393;-40
2022/05/20 06:54:42;;;;;;;;;;;21.60;53.70;;;;;;466905;254;1193;-40
2022/05/20 06:56:44;;;;;;;;;;;21.50;53.70;;;;;;465155;255;1324;-40
2022/05/20 06:58:45;;;;;;;;;;;21.60;53.70;;;;;;466847;255;1571;-40
2022/05/20 07:00:46;;;;;;;;;;;21.60;53.70;;;;;;465014;255;1306;-40
2022/05/20 07:02:47;;;;;;;;;;;21.60;53.70;;;;;;467239;255;2188;-40
2022/05/20 07:04:49;;;;;;;;;;;21.60;53.70;;;;;;465088;255;1235;-40
2022/05/20 07:06:50;;;;;;;;;;;21.60;53.80;;;;;;466772;254;1273;-40
2022/05/20 07:08:51;;;;;;;;;;;21.60;53.70;;;;;;464874;255;1313;-40
2022/05/20 07:10:53;;;;;;;;;;;21.60;53.70;;;;;;466800;254;1339;-40
2022/05/20 07:12:54;;;;;;;;;;;21.60;53.80;;;;;;465047;255;1386;-40
2022/05/20 07:14:55;;;;;;;;;;;21.60;53.80;;;;;;467083;254;1152;-40
2022/05/20 07:16:57;;;;;;;;;;;21.60;53.80;;;;;;465065;255;1230;-41
2022/05/20 07:18:58;;;;;;;;;;;21.60;53.80;;;;;;467014;254;1204;-40
2022/05/20 07:20:59;;;;;;;;;;;21.60;53.80;;;;;;465124;255;1436;-41
2022/05/20 07:23:01;;;;;;;;;;;21.70;53.80;;;;;;467205;255;2197;-40
2022/05/20 07:25:02;;;;;;;;;;;21.60;53.80;;;;;;465637;255;1316;-40
2022/05/20 07:27:03;;;;;;;;;;;21.60;53.90;;;;;;467376;254;1245;-40
2022/05/20 07:29:05;;;;;;;;;;;21.60;53.90;;;;;;465102;255;1250;-40
2022/05/20 07:31:06;;;;;;;;;;;21.60;53.80;;;;;;466999;254;1583;-40
2022/05/20 07:33:07;;;;;;;;;;;21.60;53.80;;;;;;465393;255;1109;-40
2022/05/20 07:35:10;;;;;;;;;;;21.60;53.90;;;;;;467306;254;1269;-40
2022/05/20 07:37:11;;;;;;;;;;;21.60;53.80;;;;;;465000;255;1201;-40
2022/05/20 07:39:12;;;;;;;;;;;21.60;53.90;;;;;;466886;254;1357;-40
2022/05/20 07:41:13;;;;;;;;;;;21.60;54.00;;;;;;464955;255;2244;-40
2022/05/20 07:43:15;;;;;;;;;;;21.70;54.00;;;;;;466935;254;1205;-40
2022/05/20 07:45:16;;;;;;;;;;;21.60;54.00;;;;;;464945;255;1157;-40
2022/05/20 07:47:18;;;;;;;;;;;21.60;54.00;;;;;;466674;254;1293;-41
2022/05/20 07:49:20;;;;;;;;;;;21.70;54.00;;;;;;464867;255;1267;-41
2022/05/20 07:51:21;;;;;;;;;;;21.70;53.90;;;;;;466752;254;1172;-41
2022/05/20 07:53:25;;;;;;;;;;;21.70;54.00;;;;;;464754;255;1371;-40
2022/05/20 07:55:24;;;;;;;;;;;21.70;54.00;;;;;;466584;255;1323;-41
2022/05/20 07:57:25;;;;;;;;;;;21.70;54.00;;;;;;465119;255;1213;-40
2022/05/20 07:59:27;;;;;;;;;;;21.60;54.00;;;;;;466875;254;1222;-40
2022/05/20 08:01:28;;;;;;;;;;;21.60;54.10;;;;;;464938;256;2158;-40
2022/05/20 08:05:48;;;;;;;;;;;21.60;54.20;;;;;;465026;255;1343;-40
2022/05/20 08:07:50;;;;;;;;;;;21.60;54.30;;;;;;466762;254;1182;-40
2022/05/20 08:09:51;;;;;;;;;;;21.60;54.20;;;;;;465058;255;1108;-40
2022/05/20 08:11:52;;;;;;;;;;;21.60;54.20;;;;;;466808;254;1278;-40
2022/05/20 08:13:54;;;;;;;;;;;21.70;54.20;;;;;;464976;255;1392;-40
2022/05/20 08:15:55;;;;;;;;;;;21.70;54.20;;;;;;466943;254;1190;-40
2022/05/20 08:17:56;;;;;;;;;;;21.60;54.20;;;;;;464796;255;1208;-40
2022/05/20 08:19:58;;;;;;;;;;;21.70;54.20;;;;;;466727;254;1359;-40
2022/05/20 08:21:59;;;;;;;;;;;21.70;54.20;;;;;;464817;255;2159;-41
2022/05/20 08:24:00;;;;;;;;;;;21.60;54.30;;;;;;466739;254;1268;-40
2022/05/20 08:26:02;;;;;;;;;;;21.70;54.20;;;;;;465077;255;1317;-40
2022/05/20 08:28:03;;;;;;;;;;;21.70;54.20;;;;;;466873;254;1267;-40
2022/05/20 08:30:04;;;;;;;;;;;21.70;54.20;;;;;;465128;255;1450;-41
2022/05/20 08:32:07;;;;;;;;;;;21.70;54.20;;;;;;466950;254;1280;-40
2022/05/20 08:34:07;;;;;;;;;;;21.70;54.30;;;;;;465142;256;2250;-40
2022/05/20 08:36:08;;;;;;;;;;;21.70;54.30;;;;;;466826;254;1278;-41
2022/05/20 08:38:10;;;;;;;;;;;21.60;54.30;;;;;;465782;255;1058;-41
2022/05/20 08:40:11;;;;;;;;;;;21.60;54.30;;;;;;467009;254;1189;-40
2022/05/20 08:42:12;;;;;;;;;;;21.70;54.40;;;;;;464865;255;2201;-40
2022/05/20 08:44:14;;;;;;;;;;;21.70;54.30;;;;;;466804;254;1137;-41
2022/05/20 08:46:15;;;;;;;;;;;21.70;54.30;;;;;;464971;255;1260;-40
2022/05/20 08:48:18;;;;;;;;;;;21.70;54.20;;;;;;466819;254;1222;-41
2022/05/20 08:50:20;;;;;;;;;;;21.80;54.10;;;;;;464818;256;2473;-40
2022/05/20 08:52:19;;;;;;;;;;;21.70;54.20;;;;;;466614;255;2372;-40
2022/05/20 08:54:20;;;;;;;;;;;21.70;54.20;;;;;;465018;255;1298;-40
2022/05/20 08:56:22;;;;;;;;;;;21.70;54.20;;;;;;466741;254;1307;-40
2022/05/20 08:58:23;;;;;;;;;;;21.70;54.30;;;;;;464613;255;1273;-40
2022/05/20 09:00:24;;;;;;;;;;;21.70;54.20;;;;;;466614;255;1276;-40
2022/05/20 09:02:26;;;;;;;;;;;21.70;54.30;;;;;;464789;255;2202;-40
2022/05/20 09:04:27;;;;;;;;;;;21.70;54.30;;;;;;466665;255;1267;-41
2022/05/20 09:06:28;;;;;;;;;;;21.70;54.30;;;;;;464788;255;1409;-40
2022/05/20 09:08:33;;;;;;;;;;;21.70;54.30;;;;;;466695;255;1294;-40
2022/05/20 09:10:31;;;;;;;;;;;21.70;54.30;;;;;;464696;256;2316;-41
2022/05/20 09:12:32;;;;;;;;;;;21.70;54.20;;;;;;466842;254;1670;-40
2022/05/20 09:17:13;;;;;;;;;;;21.70;54.30;;;;;;450185;263;1261;-40
2022/05/20 09:19:14;;;;;;;;;;;21.70;54.40;;;;;;450159;264;1193;-41
2022/05/20 09:21:15;;;;;;;;;;;21.70;54.40;;;;;;450275;264;1619;-40
2022/05/20 09:23:20;;;;;;;;;;;21.60;54.40;;;;;;465239;255;2204;-41
2022/05/20 09:25:18;;;;;;;;;;;21.60;54.40;;;;;;464899;255;2018;-40
2022/05/20 09:27:19;;;;;;;;;;;21.60;54.40;;;;;;466715;255;1245;-40
2022/05/20 09:29:21;;;;;;;;;;;21.70;54.40;;;;;;465024;255;1148;-41
2022/05/20 09:31:22;;;;;;;;;;;21.60;54.40;;;;;;466771;255;1159;-40
2022/05/20 09:33:24;;;;;;;;;;;21.70;54.40;;;;;;465127;255;1238;-40
2022/05/20 09:35:25;;;;;;;;;;;21.70;54.40;;;;;;467243;254;1251;-40
2022/05/20 09:37:26;;;;;;;;;;;21.70;54.40;;;;;;465164;255;1643;-40
2022/05/20 09:39:28;;;;;;;;;;;21.70;54.30;;;;;;467639;254;1175;-40
2022/05/20 09:41:29;;;;;;;;;;;21.70;54.30;;;;;;465217;255;1203;-41
2022/05/20 09:43:30;;;;;;;;;;;21.70;54.40;;;;;;466928;255;2212;-40
2022/05/20 09:45:32;;;;;;;;;;;21.60;54.30;;;;;;464948;255;1219;-40
2022/05/20 09:47:33;;;;;;;;;;;21.70;54.30;;;;;;466968;255;1275;-40
2022/05/20 09:49:35;;;;;;;;;;;21.70;54.40;;;;;;465553;254;1174;-40
2022/05/20 09:51:36;;;;;;;;;;;21.70;54.40;;;;;;466800;255;2098;-40
2022/05/20 09:53:37;;;;;;;;;;;21.70;54.30;;;;;;465079;255;1129;-40
2022/05/20 09:55:38;;;;;;;;;;;21.60;54.30;;;;;;466786;254;1210;-40
2022/05/20 09:57:40;;;;;;;;;;;21.70;54.30;;;;;;464801;255;1224;-40
2022/05/20 09:59:41;;;;;;;;;;;21.70;54.30;;;;;;466651;255;1306;-40
2022/05/20 10:01:42;;;;;;;;;;;21.70;54.30;;;;;;464728;255;1810;-40
2022/05/20 10:03:44;;;;;;;;;;;21.70;54.30;;;;;;466553;255;2201;-40
2022/05/20 10:05:45;;;;;;;;;;;21.70;54.30;;;;;;464815;255;1176;-40
2022/05/20 10:07:46;;;;;;;;;;;21.70;54.40;;;;;;466703;254;1229;-40
2022/05/20 10:09:48;;;;;;;;;;;21.70;54.40;;;;;;464942;255;1199;-40
2022/05/20 10:11:49;;;;;;;;;;;21.70;54.40;;;;;;466651;255;1311;-40
2022/05/20 10:13:53;;;;;;;;;;;21.70;54.40;;;;;;464906;255;1287;-40
2022/05/20 10:15:52;;;;;;;;;;;21.70;54.30;;;;;;466661;255;2325;-40
2022/05/20 10:17:54;;;;;;;;;;;21.70;54.30;;;;;;464861;255;1288;-40
2022/05/20 10:19:55;;;;;;;;;;;21.70;54.40;;;;;;466748;254;1179;-40
2022/05/20 10:21:56;;;;;;;;;;;21.70;54.40;;;;;;464695;255;1178;-40
2022/05/20 10:23:58;;;;;;;;;;;21.70;54.40;;;;;;466653;254;2150;-40
2022/05/20 10:25:59;;;;;;;;;;;21.70;54.30;;;;;;465045;255;1254;-40
2022/05/20 10:28:00;;;;;;;;;;;21.70;54.30;;;;;;466894;255;1209;-40
2022/05/20 10:32:36;;;;;;;;;;;21.70;54.30;;;;;;466973;254;1251;-40
2022/05/20 10:34:37;;;;;;;;;;;21.70;54.30;;;;;;465815;255;1140;-40
2022/05/20 10:36:39;;;;;;;;;;;21.60;54.40;;;;;;467512;254;1315;-40
2022/05/20 10:38:40;;;;;;;;;;;21.70;54.40;;;;;;464965;255;1617;-39
2022/05/20 10:40:42;;;;;;;;;;;21.70;54.40;;;;;;466898;254;1328;-40
2022/05/20 10:42:43;;;;;;;;;;;21.60;54.40;;;;;;465376;255;2139;-40
2022/05/20 10:49:23;;;;;;;;;;;21.70;54.30;;;;;;467006;254;1275;-40
2022/05/20 10:51:24;;;;;;;;;;;21.70;54.40;;;;;;465097;255;1239;-40
2022/05/20 10:53:26;;;;;;;;;;;21.70;54.40;;;;;;466929;253;1264;-40
2022/05/20 10:55:27;;;;;;;;;;;21.70;54.40;;;;;;464932;255;1203;-40
2022/05/20 10:57:28;;;;;;;;;;;21.70;54.30;;;;;;466823;254;1194;-40
2022/05/20 10:59:29;;;;;;;;;;;21.70;54.20;;;;;;465698;255;1339;-40
2022/05/20 11:01:31;;;;;;;;;;;21.70;54.30;;;;;;467106;254;1208;-40
2022/05/20 11:03:32;;;;;;;;;;;21.60;54.30;;;;;;465484;255;2206;-40
2022/05/20 11:05:33;;;;;;;;;;;21.70;54.30;;;;;;467231;254;1237;-40
2022/05/20 11:07:35;;;;;;;;;;;21.70;54.20;;;;;;464855;255;1625;-40
2022/05/20 11:09:36;;;;;;;;;;;21.70;54.20;;;;;;466796;254;1211;-40
2022/05/20 11:11:38;;;;;;;;;;;21.60;54.30;;;;;;465101;255;1257;-40
2022/05/20 11:13:39;;;;;;;;;;;21.60;54.30;;;;;;466944;255;1262;-40
2022/05/20 11:15:40;;;;;;;;;;;21.70;54.40;;;;;;465129;255;1113;-40
2022/05/20 11:17:42;;;;;;;;;;;21.60;54.40;;;;;;466886;255;1061;-40
2022/05/20 11:19:43;;;;;;;;;;;21.60;54.40;;;;;;465070;255;1128;-40
2022/05/20 11:21:44;;;;;;;;;;;21.60;54.40;;;;;;466732;255;1253;-40
2022/05/20 11:23:47;;;;;;;;;;;21.60;54.30;;;;;;465231;255;2221;-40
2022/05/20 11:25:48;;;;;;;;;;;21.60;54.30;;;;;;467476;255;2219;-40
2022/05/20 11:27:49;;;;;;;;;;;21.60;54.30;;;;;;465610;255;1692;-40
2022/05/20 11:29:52;;;;;;;;;;;21.60;54.30;;;;;;467116;255;1286;-40
2022/05/20 11:31:52;;;;;;;;;;;21.60;54.30;;;;;;464888;255;2280;-40
2022/05/20 11:33:54;;;;;;;;;;;21.70;54.30;;;;;;466798;255;1275;-40
2022/05/20 11:35:58;;;;;;;;;;;21.60;54.30;;;;;;465050;255;2289;-39
2022/05/20 11:37:56;;;;;;;;;;;21.70;54.30;;;;;;466739;255;2061;-40
2022/05/20 11:39:57;;;;;;;;;;;21.70;54.30;;;;;;465443;255;1243;-40
2022/05/20 11:41:58;;;;;;;;;;;21.70;54.30;;;;;;466943;254;1232;-40
2022/05/20 11:44:00;;;;;;;;;;;21.70;54.30;;;;;;465307;255;2196;-40
2022/05/20 11:46:02;;;;;;;;;;;21.70;54.30;;;;;;466934;254;1311;-40
2022/05/20 11:48:04;;;;;;;;;;;21.60;54.30;;;;;;465554;255;1296;-40
2022/05/20 11:50:04;;;;;;;;;;;21.70;54.30;;;;;;466912;254;2282;-40
2022/05/20 11:52:05;;;;;;;;;;;21.70;54.20;;;;;;465234;255;1201;-40
2022/05/20 11:54:07;;;;;;;;;;;21.70;54.30;;;;;;467228;255;1307;-40
2022/05/20 11:56:09;;;;;;;;;;;21.70;54.20;;;;;;465156;255;1182;-40
2022/05/20 11:58:10;;;;;;;;;;;21.70;54.30;;;;;;467078;255;2126;-40
2022/05/20 12:00:11;;;;;;;;;;;21.70;54.20;;;;;;465135;256;2059;-40
2022/05/20 12:02:14;;;;;;;;;;;21.70;54.20;;;;;;467121;255;1117;-40
2022/05/20 12:04:13;;;;;;;;;;;21.70;54.20;;;;;;465734;256;2189;-40
2022/05/20 12:06:15;;;;;;;;;;;21.70;54.30;;;;;;467566;254;1104;-40
2022/05/20 12:08:16;;;;;;;;;;;21.70;54.40;;;;;;465677;255;1102;-40
2022/05/20 12:10:17;;;;;;;;;;;21.70;54.30;;;;;;467197;255;1207;-40
2022/05/20 12:12:19;;;;;;;;;;;21.60;54.40;;;;;;464991;255;1234;-40
2022/05/20 12:14:20;;;;;;;;;;;21.70;54.40;;;;;;466837;254;1241;-40
2022/05/20 12:16:21;;;;;;;;;;;21.70;54.30;;;;;;465086;255;1242;-40
2022/05/20 12:24:11;;;;;;;;;;;21.70;54.20;;;;;;467044;254;1542;-40
2022/05/20 12:25:03;;;;;;;;;;;21.70;54.20;;;;;;464905;255;1810;-40
2022/05/20 12:27:04;;;;;;;;;;;21.70;54.20;;;;;;466864;254;1291;-40
2022/05/20 12:29:05;;;;;;;;;;;21.70;54.20;;;;;;465037;255;1309;-40
2022/05/20 12:31:07;;;;;;;;;;;21.70;54.20;;;;;;466978;255;1217;-40
2022/05/20 12:33:08;;;;;;;;;;;21.70;54.20;;;;;;465416;255;1247;-40
2022/05/20 12:35:10;;;;;;;;;;;21.70;54.20;;;;;;466971;255;1253;-40
2022/05/20 12:37:11;;;;;;;;;;;21.70;54.20;;;;;;465102;255;1277;-40
2022/05/20 12:39:12;;;;;;;;;;;21.70;54.10;;;;;;466959;255;1364;-40